Time;durP1;ratioP1;P1;durP2;ratioP2;P2;SDS_P1;SDS_P2;PMS_P1;PMS_P2;Temp;Humidity;BMP_temperature;BMP_pressure;BME280_temperature;BME280_humidity;BME280_pressure;Samples;Min_cycle;Max_cycle;Signal;HPM_P1;HPM_P2
2022/10/23 00:01:31;;;;;;;13.45;5.03;;;12.80;1.00;;;;;;5080841;28;20489;-53
2022/10/23 00:04:22;;;;;;;12.00;5.70;;;12.80;1.00;;;;;;5091419;28;20437;-53
2022/10/23 00:06:48;;;;;;;11.13;4.75;;;12.90;1.00;;;;;;5090478;28;20484;-53
2022/10/23 00:09:16;;;;;;;11.65;5.70;;;12.90;1.00;;;;;;5092014;28;20391;-53
2022/10/23 00:11:43;;;;;;;11.57;5.20;;;13.00;1.00;;;;;;5091113;28;20434;-53
2022/10/23 00:14:09;;;;;;;11.60;5.40;;;13.10;1.00;;;;;;5090044;28;20400;-53
2022/10/23 00:16:35;;;;;;;13.80;5.60;;;13.10;1.00;;;;;;5071563;28;20924;-54
2022/10/23 00:19:01;;;;;;;12.07;5.07;;;13.00;13.90;;;;;;5070925;28;20442;-53
2022/10/23 00:21:27;;;;;;;10.38;4.90;;;13.00;23.00;;;;;;5071585;28;20386;-53
2022/10/23 00:23:52;;;;;;;10.30;4.82;;;13.00;28.90;;;;;;5069272;28;20393;-53
2022/10/23 00:26:18;;;;;;;9.07;4.40;;;13.00;10.90;;;;;;5071441;28;20525;-53
2022/10/23 00:28:46;;;;;;;12.10;4.80;;;12.90;13.90;;;;;;5070431;28;20391;-53
2022/10/23 00:31:13;;;;;;;9.57;4.70;;;12.90;3.30;;;;;;5070841;28;20416;-53
2022/10/23 00:33:39;;;;;;;13.85;5.32;;;12.80;6.70;;;;;;5070845;28;20406;-55
2022/10/23 00:36:07;;;;;;;12.00;5.18;;;12.80;1.00;;;;;;5070890;28;20459;-53
2022/10/23 00:38:33;;;;;;;15.57;5.40;;;12.80;1.00;;;;;;5070971;28;20796;-53
2022/10/23 00:40:58;;;;;;;12.30;5.50;;;12.80;1.00;;;;;;5070382;28;20399;-53
2022/10/23 00:43:28;;;;;;;13.32;5.07;;;12.80;1.00;;;;;;5071188;28;20380;-53
2022/10/23 00:45:54;;;;;;;13.15;5.07;;;12.90;1.00;;;;;;5070201;28;20420;-53
2022/10/23 00:48:20;;;;;;;11.10;5.57;;;12.90;1.00;;;;;;5070832;28;20403;-53
2022/10/23 00:50:47;;;;;;;11.32;4.80;;;12.80;1.00;;;;;;5089974;28;20389;-53
2022/10/23 00:53:14;;;;;;;10.00;4.90;;;12.80;4.20;;;;;;5091021;28;21197;-53
2022/10/23 00:55:45;;;;;;;11.38;5.30;;;12.80;23.90;;;;;;5090371;28;20382;-55
2022/10/23 00:58:17;;;;;;;10.35;4.80;;;12.90;35.40;;;;;;5090979;28;20399;-53
2022/10/23 01:00:51;;;;;;;10.80;4.75;;;12.90;51.90;;;;;;5090288;28;20452;-53
2022/10/23 01:03:18;;;;;;;10.73;4.82;;;12.90;67.80;;;;;;5091193;28;20954;-53
2022/10/23 01:05:53;;;;;;;11.95;5.15;;;12.80;91.60;;;;;;5090090;28;20371;-53
2022/10/23 01:08:26;;;;;;;11.38;4.85;;;12.80;97.40;;;;;;5090762;28;20382;-53
2022/10/23 01:11:09;;;;;;;13.73;5.10;;;12.80;79.60;;;;;;5090278;28;20374;-53
2022/10/23 01:13:49;;;;;;;9.38;4.60;;;12.80;80.20;;;;;;5090512;28;20380;-54
2022/10/23 01:16:41;;;;;;;13.30;6.13;;;12.80;79.80;;;;;;5090497;28;20374;-53
2022/10/23 01:19:20;;;;;;;12.70;5.70;;;12.70;98.30;;;;;;5090361;28;20390;-54
2022/10/23 01:22:15;;;;;;;10.70;5.87;;;12.70;99.10;;;;;;5089921;28;20449;-54
2022/10/23 01:25:02;;;;;;;12.23;6.30;;;12.60;99.90;;;;;;5076042;28;20899;-54
2022/10/23 01:27:38;;;;;;;13.50;5.65;;;12.60;99.90;;;;;;5090520;28;20394;-54
2022/10/23 01:30:11;;;;;;;11.68;5.35;;;12.50;99.90;;;;;;5089921;28;20479;-54
2022/10/23 01:33:03;;;;;;;11.68;5.80;;;12.50;99.90;;;;;;5089664;28;20786;-55
2022/10/23 01:35:36;;;;;;;10.52;5.13;;;12.40;99.90;;;;;;5090344;28;20386;-54
2022/10/23 01:38:05;;;;;;;12.73;5.60;;;12.40;99.90;;;;;;5089772;28;20385;-53
2022/10/23 01:40:38;;;;;;;9.77;4.97;;;12.40;99.90;;;;;;5089859;28;20744;-53
2022/10/23 01:43:10;;;;;;;9.93;4.97;;;12.40;99.90;;;;;;5089836;28;20863;-53
2022/10/23 01:45:42;;;;;;;12.25;5.03;;;12.40;99.90;;;;;;5090084;28;20482;-54
2022/10/23 01:48:10;;;;;;;11.07;5.30;;;12.40;99.90;;;;;;5090194;28;20441;-54
2022/10/23 01:50:38;;;;;;;9.90;4.78;;;12.40;99.90;;;;;;5089918;28;20393;-54
2022/10/23 01:53:04;;;;;;;11.45;5.50;;;12.40;99.90;;;;;;5089484;28;20406;-54
2022/10/23 01:55:31;;;;;;;11.32;5.43;;;12.50;99.90;;;;;;5089907;28;20389;-53
2022/10/23 01:57:59;;;;;;;11.37;5.33;;;12.40;99.90;;;;;;5089296;28;20459;-53
2022/10/23 02:00:25;;;;;;;13.75;5.57;;;12.40;99.90;;;;;;5089669;28;20472;-53
2022/10/23 02:02:52;;;;;;;10.80;5.10;;;12.40;99.90;;;;;;5088915;28;21026;-53
2022/10/23 02:05:25;;;;;;;10.10;5.07;;;12.40;99.90;;;;;;5089800;28;20370;-53
2022/10/23 02:07:52;;;;;;;13.90;5.30;;;12.40;99.90;;;;;;5089139;28;20394;-53
2022/10/23 02:10:19;;;;;;;10.82;5.22;;;12.40;99.90;;;;;;5089842;28;20393;-54
2022/10/23 02:13:00;;;;;;;12.25;5.20;;;12.40;99.90;;;;;;5089012;28;20915;-54
2022/10/23 02:15:35;;;;;;;10.50;5.23;;;12.40;99.90;;;;;;5089813;28;20382;-53
2022/10/23 02:18:08;;;;;;;12.25;5.43;;;12.40;99.90;;;;;;5088975;28;20386;-53
2022/10/23 02:20:41;;;;;;;13.23;5.78;;;12.60;99.90;;;;;;5089797;28;20469;-53
2022/10/23 02:23:44;;;;;;;11.23;5.43;;;12.40;99.90;;;;;;5089399;28;20393;-53
2022/10/23 02:26:16;;;;;;;11.00;4.78;;;12.30;99.90;;;;;;5089353;28;20400;-53
2022/10/23 02:28:48;;;;;;;12.02;4.90;;;12.30;99.90;;;;;;5088729;28;20389;-53
2022/10/23 02:31:17;;;;;;;12.07;5.13;;;12.30;99.90;;;;;;5089673;28;20413;-53
2022/10/23 02:33:45;;;;;;;10.45;5.07;;;12.30;99.90;;;;;;5088561;28;20993;-54
2022/10/23 02:36:11;;;;;;;10.38;5.13;;;12.30;99.90;;;;;;5089284;28;20386;-53
2022/10/23 02:38:40;;;;;;;13.70;4.60;;;12.30;99.90;;;;;;5089770;28;20385;-55
2022/10/23 02:41:32;;;;;;;10.45;4.90;;;12.40;99.90;;;;;;5089794;28;20374;-53
2022/10/23 02:44:15;;;;;;;10.65;5.20;;;12.40;99.90;;;;;;5088698;28;20750;-53
2022/10/23 02:46:58;;;;;;;11.70;4.78;;;12.40;99.90;;;;;;5090625;28;20426;-54
2022/10/23 02:49:41;;;;;;;10.70;4.70;;;12.40;99.90;;;;;;5093616;28;20386;-53
2022/10/23 02:52:35;;;;;;;11.43;5.20;;;12.50;99.90;;;;;;5093585;28;20461;-53
2022/10/23 02:55:24;;;;;;;12.88;4.70;;;12.60;99.90;;;;;;5092463;28;21394;-53
2022/10/23 02:57:55;;;;;;;8.93;4.05;;;12.60;99.90;;;;;;5092769;28;20388;-53
2022/10/23 03:00:22;;;;;;;13.48;4.80;;;12.60;99.90;;;;;;5093664;28;20378;-53
2022/10/23 03:03:12;;;;;;;10.30;4.50;;;12.80;99.90;;;;;;5092460;28;20394;-53
2022/10/23 03:05:40;;;;;;;9.07;4.47;;;12.80;99.90;;;;;;5092657;28;20431;-54
2022/10/23 03:08:11;;;;;;;7.75;4.00;;;12.80;99.90;;;;;;5074316;28;20709;-53
2022/10/23 03:10:37;;;;;;;10.65;4.53;;;12.80;99.90;;;;;;5093159;28;20404;-54
2022/10/23 03:13:02;;;;;;;8.98;4.68;;;12.80;99.90;;;;;;5092452;28;20863;-53
2022/10/23 03:15:28;;;;;;;13.48;4.82;;;12.80;99.90;;;;;;5092821;28;20770;-53
2022/10/23 03:17:54;;;;;;;13.63;4.57;;;12.80;99.90;;;;;;5091481;28;20391;-53
2022/10/23 03:20:19;;;;;;;11.57;4.50;;;11.20;99.90;;;;;;5091877;28;20914;-53
2022/10/23 03:22:45;;;;;;;10.63;4.90;;;12.80;99.90;;;;;;5091255;28;20447;-54
2022/10/23 03:25:11;;;;;;;9.80;5.07;;;12.80;99.90;;;;;;5092860;28;20397;-54
2022/10/23 03:27:37;;;;;;;10.63;4.70;;;12.80;99.90;;;;;;5092634;28;20453;-53
2022/10/23 03:30:04;;;;;;;11.95;4.45;;;12.70;99.90;;;;;;5091679;28;20462;-53
2022/10/23 03:32:29;;;;;;;8.40;4.30;;;12.70;95.00;;;;;;5091860;28;20901;-53
2022/10/23 03:34:55;;;;;;;11.85;4.90;;;12.70;88.90;;;;;;5073603;28;20433;-53
2022/10/23 03:37:21;;;;;;;9.17;4.33;;;12.60;96.70;;;;;;5092456;28;20401;-53
2022/10/23 03:39:47;;;;;;;9.77;4.32;;;12.60;99.90;;;;;;5091548;28;20382;-53
2022/10/23 03:42:12;;;;;;;9.53;4.30;;;12.60;99.90;;;;;;5092425;28;20374;-53
2022/10/23 03:44:38;;;;;;;10.63;4.35;;;12.70;99.90;;;;;;5091860;28;20413;-54
2022/10/23 03:47:04;;;;;;;8.63;4.23;;;12.60;99.90;;;;;;5091337;28;20379;-53
2022/10/23 03:49:29;;;;;;;9.87;4.50;;;12.60;99.90;;;;;;5092115;28;20399;-53
2022/10/23 03:51:55;;;;;;;10.10;4.25;;;12.60;99.90;;;;;;5090978;28;20763;-53
2022/10/23 03:54:23;;;;;;;9.75;4.20;;;12.60;97.80;;;;;;5092316;28;20389;-53
2022/10/23 03:56:49;;;;;;;10.10;4.68;;;12.70;92.90;;;;;;5090971;28;20413;-53
2022/10/23 03:59:14;;;;;;;8.82;4.03;;;12.60;59.60;;;;;;5092032;28;20452;-53
2022/10/23 04:01:40;;;;;;;9.40;4.30;;;12.60;52.90;;;;;;5091685;28;20392;-55
2022/10/23 04:04:06;;;;;;;14.03;5.37;;;12.60;52.90;;;;;;5091483;28;20413;-53
2022/10/23 04:06:31;;;;;;;10.55;4.40;;;12.50;23.90;;;;;;5091988;28;20469;-53
2022/10/23 04:08:57;;;;;;;11.30;4.60;;;12.50;26.30;;;;;;5091052;28;20382;-53
2022/10/23 04:11:23;;;;;;;12.48;4.75;;;12.50;71.80;;;;;;5091729;28;20402;-53
2022/10/23 04:13:48;;;;;;;9.35;4.63;;;12.50;84.00;;;;;;5090938;28;20457;-53
2022/10/23 04:16:14;;;;;;;9.77;4.00;;;12.50;54.30;;;;;;5091860;28;20731;-53
2022/10/23 04:18:41;;;;;;;10.45;4.70;;;12.50;43.00;;;;;;5091386;28;20374;-55
2022/10/23 04:21:06;;;;;;;10.35;4.50;;;12.50;18.20;;;;;;5091094;28;20436;-53
2022/10/23 04:23:32;;;;;;;9.80;4.73;;;12.60;9.30;;;;;;5091808;28;20715;-53
2022/10/23 04:25:58;;;;;;;10.70;4.68;;;12.60;15.20;;;;;;5090433;28;20435;-53
2022/10/23 04:28:24;;;;;;;12.13;5.05;;;12.70;1.00;;;;;;5091119;28;20386;-55
2022/10/23 04:30:50;;;;;;;12.20;5.40;;;12.80;1.00;;;;;;5090626;28;20370;-56
2022/10/23 04:33:16;;;;;;;9.10;5.07;;;12.60;4.40;;;;;;5091046;28;20433;-51
2022/10/23 04:35:41;;;;;;;11.20;5.00;;;12.60;6.20;;;;;;5091006;28;20473;-55
2022/10/23 04:38:07;;;;;;;11.70;4.90;;;12.70;21.20;;;;;;5090968;28;20373;-53
2022/10/23 04:40:32;;;;;;;12.60;5.07;;;12.60;24.90;;;;;;5091226;28;20429;-53
2022/10/23 04:42:58;;;;;;;10.15;4.35;;;12.70;5.40;;;;;;5090427;28;20740;-54
2022/10/23 04:45:24;;;;;;;10.70;4.45;;;12.70;15.50;;;;;;5090939;28;20807;-53
2022/10/23 04:47:49;;;;;;;9.10;4.30;;;12.60;14.70;;;;;;5090366;28;20886;-54
2022/10/23 04:50:15;;;;;;;11.00;4.33;;;12.50;57.30;;;;;;5091143;28;20381;-53
2022/10/23 04:52:41;;;;;;;11.82;4.88;;;12.60;37.40;;;;;;5090602;28;20405;-55
2022/10/23 04:55:07;;;;;;;7.47;3.65;;;12.80;29.00;;;;;;5090618;28;20375;-53
2022/10/23 04:57:33;;;;;;;9.02;4.20;;;12.80;8.20;;;;;;5091048;28;20922;-53
2022/10/23 04:59:59;;;;;;;11.00;4.70;;;12.80;10.10;;;;;;5090233;28;20486;-53
2022/10/23 05:02:26;;;;;;;10.23;4.75;;;12.80;19.40;;;;;;5089947;28;20402;-53
2022/10/23 05:04:52;;;;;;;9.63;4.70;;;12.80;57.80;;;;;;5090236;28;20866;-53
2022/10/23 05:07:17;;;;;;;10.13;4.47;;;12.70;24.60;;;;;;5090895;28;20457;-53
2022/10/23 05:09:43;;;;;;;10.20;4.33;;;12.70;44.80;;;;;;5089326;28;20385;-55
2022/10/23 05:12:08;;;;;;;10.23;4.18;;;12.80;44.50;;;;;;5090444;28;20943;-53
2022/10/23 05:14:34;;;;;;;9.20;4.07;;;12.80;23.80;;;;;;5090942;28;20712;-53
2022/10/23 05:17:03;;;;;;;9.03;4.73;;;12.60;16.00;;;;;;5089778;28;20511;-54
2022/10/23 05:19:36;;;;;;;9.60;5.07;;;12.80;58.70;;;;;;5090672;28;20411;-53
2022/10/23 05:22:03;;;;;;;9.88;4.57;;;12.70;76.90;;;;;;5089813;28;20377;-53
2022/10/23 05:24:29;;;;;;;10.57;4.40;;;12.90;58.00;;;;;;5090851;28;20378;-53
2022/10/23 05:26:55;;;;;;;8.30;4.30;;;12.80;33.20;;;;;;5089694;28;20381;-54
2022/10/23 05:29:21;;;;;;;7.93;4.28;;;12.70;53.50;;;;;;5090829;28;20390;-53
2022/10/23 05:31:51;;;;;;;9.65;3.95;;;12.60;45.80;;;;;;5089061;28;20414;-57
2022/10/23 05:34:20;;;;;;;15.63;4.70;;;12.60;49.70;;;;;;5089590;28;20394;-54
2022/10/23 05:36:46;;;;;;;10.63;4.50;;;12.70;34.60;;;;;;5088545;28;20859;-54
2022/10/23 05:39:12;;;;;;;11.95;4.18;;;12.70;31.00;;;;;;5089524;28;20374;-53
2022/10/23 05:41:37;;;;;;;11.23;4.57;;;12.70;35.60;;;;;;5089182;28;20374;-53
2022/10/23 05:44:03;;;;;;;9.38;4.35;;;12.60;33.50;;;;;;5070527;28;20580;-53
2022/10/23 05:46:29;;;;;;;10.02;4.13;;;12.80;24.50;;;;;;5089409;28;20382;-54
2022/10/23 05:48:54;;;;;;;9.53;4.03;;;12.80;20.20;;;;;;5088793;28;20370;-53
2022/10/23 05:51:21;;;;;;;9.30;4.60;;;12.80;13.00;;;;;;5089351;28;20429;-53
2022/10/23 05:53:51;;;;;;;10.70;4.63;;;12.80;13.90;;;;;;5088457;28;20386;-54
2022/10/23 05:56:17;;;;;;;8.30;4.13;;;12.90;26.00;;;;;;5089086;28;20393;-53
2022/10/23 05:58:44;;;;;;;10.57;4.10;;;12.90;3.50;;;;;;5071002;28;20381;-55
2022/10/23 06:01:12;;;;;;;9.95;4.40;;;12.80;1.00;;;;;;5088687;28;20751;-53
2022/10/23 06:03:38;;;;;;;8.77;4.20;;;12.80;3.60;;;;;;5085686;28;20856;-53
2022/10/23 06:06:05;;;;;;;11.13;3.90;;;12.70;14.60;;;;;;5084218;28;21135;-53
2022/10/23 06:08:32;;;;;;;10.45;5.05;;;12.70;16.90;;;;;;5092276;28;20410;-53
2022/10/23 06:10:57;;;;;;;9.10;4.30;;;12.70;24.20;;;;;;5069056;28;20437;-53
2022/10/23 06:13:23;;;;;;;10.73;4.68;;;12.70;32.80;;;;;;5084059;28;20744;-53
2022/10/23 06:15:49;;;;;;;10.90;4.40;;;12.70;49.10;;;;;;5087797;28;20815;-53
2022/10/23 06:18:14;;;;;;;8.05;4.32;;;12.70;32.50;;;;;;5088875;28;20393;-53
2022/10/23 06:20:40;;;;;;;8.40;4.00;;;12.80;22.80;;;;;;5078315;28;20395;-52
2022/10/23 06:23:06;;;;;;;9.40;4.30;;;12.90;23.80;;;;;;5073980;28;20409;-53
2022/10/23 06:25:32;;;;;;;6.83;3.27;;;12.90;1.00;;;;;;5082059;28;20386;-53
2022/10/23 06:27:58;;;;;;;8.75;4.40;;;12.90;1.00;;;;;;5080299;28;20901;-53
2022/10/23 06:30:23;;;;;;;9.37;3.80;;;13.00;1.00;;;;;;5078555;28;20510;-53
2022/10/23 06:32:49;;;;;;;10.40;4.00;;;13.20;1.00;;;;;;5044903;28;813902;-53
2022/10/23 06:35:15;;;;;;;9.83;4.30;;;13.20;1.00;;;;;;5073711;28;20432;-54
2022/10/23 06:37:40;;;;;;;9.38;3.40;;;13.30;1.00;;;;;;5087278;28;20385;-53
2022/10/23 06:40:07;;;;;;;7.65;3.70;;;13.50;1.00;;;;;;5081719;28;20489;-54
2022/10/23 06:42:33;;;;;;;8.35;3.95;;;13.50;1.00;;;;;;5083661;28;20413;-53
2022/10/23 06:44:59;;;;;;;8.88;3.90;;;13.60;1.00;;;;;;5083847;28;20389;-53
2022/10/23 06:47:24;;;;;;;8.17;3.53;;;13.60;1.00;;;;;;5084868;28;20374;-53
2022/10/23 06:49:50;;;;;;;10.00;3.70;;;13.70;1.00;;;;;;5078422;28;20419;-53
2022/10/23 06:52:16;;;;;;;8.00;3.63;;;13.80;1.00;;;;;;5080389;28;20414;-53
2022/10/23 06:54:41;;;;;;;8.20;3.90;;;13.90;1.00;;;;;;5061543;28;20741;-55
2022/10/23 06:57:07;;;;;;;10.83;4.10;;;14.20;1.00;;;;;;5079198;28;20424;-53
2022/10/23 06:59:32;;;;;;;11.07;4.13;;;14.20;1.00;;;;;;5077907;28;20382;-54
2022/10/23 07:01:58;;;;;;;8.10;3.90;;;14.20;1.00;;;;;;5075482;28;20490;-54
2022/10/23 07:04:24;;;;;;;10.67;4.17;;;14.20;99.90;;;;;;5078813;28;20390;-53
2022/10/23 07:06:49;;;;;;;9.13;3.75;;;12.20;99.90;;;;;;5076185;28;20398;-54
2022/10/23 07:09:15;;;;;;;7.97;3.47;;;14.20;1.00;;;;;;5076935;28;20400;-54
2022/10/23 07:11:40;;;;;;;10.80;3.80;;;14.30;99.90;;;;;;5079035;28;20448;-54
2022/10/23 07:14:06;;;;;;;7.93;3.20;;;14.40;99.90;;;;;;5073928;28;20773;-54
2022/10/23 07:16:32;;;;;;;8.60;3.70;;;14.40;99.90;;;;;;5076345;28;20431;-53
2022/10/23 07:18:59;;;;;;;9.07;3.57;;;14.60;99.90;;;;;;5076914;28;20397;-54
2022/10/23 07:21:30;;;;;;;12.13;4.70;;;14.80;99.90;;;;;;5077129;28;20483;-55
2022/10/23 07:23:57;;;;;;;8.35;3.30;;;15.00;99.90;;;;;;5052917;28;20407;-55
2022/10/23 07:26:23;;;;;;;7.75;3.22;;;15.40;1.00;;;;;;5082789;28;20398;-54
2022/10/23 07:28:53;;;;;;;12.17;3.60;;;15.60;99.90;;;;;;5059557;28;20419;-54
2022/10/23 07:31:25;;;;;;;8.60;3.28;;;15.90;1.00;;;;;;5078577;28;20408;-54
2022/10/23 07:33:52;;;;;;;7.10;2.90;;;16.20;99.90;;;;;;5080106;28;20917;-54
2022/10/23 07:36:18;;;;;;;7.80;3.20;;;16.40;1.00;;;;;;5085058;28;20946;-54
2022/10/23 07:38:44;;;;;;;8.27;3.30;;;16.50;99.90;;;;;;5083462;28;20754;-55
2022/10/23 07:41:10;;;;;;;10.32;3.20;;;16.70;1.00;;;;;;5081142;28;20374;-54
2022/10/23 07:43:36;;;;;;;8.88;3.47;;;16.70;1.00;;;;;;5078148;28;20463;-54
2022/10/23 07:46:02;;;;;;;7.07;3.30;;;16.80;1.00;;;;;;5079512;28;20605;-55
2022/10/23 07:48:29;;;;;;;9.90;3.20;;;17.00;99.90;;;;;;5078952;28;20386;-54
2022/10/23 07:51:07;;;;;;;8.40;3.15;;;17.20;99.90;;;;;;5075183;28;20404;-55
2022/10/23 07:53:33;;;;;;;8.00;3.10;;;17.50;73.00;;;;;;5079331;28;20409;-55
2022/10/23 07:56:01;;;;;;;8.00;2.90;;;17.60;1.00;;;;;;5074824;28;20380;-55
2022/10/23 07:58:28;;;;;;;8.73;2.85;;;17.80;1.00;;;;;;5077936;28;20406;-54
2022/10/23 08:00:57;;;;;;;7.65;2.90;;;18.40;1.00;;;;;;5069989;28;20586;-55
2022/10/23 08:03:28;;;;;;;8.30;2.95;;;19.10;85.50;;;;;;5081394;28;20402;-55
2022/10/23 08:05:55;;;;;;;10.60;3.17;;;19.70;1.00;;;;;;5075564;28;20768;-56
2022/10/23 08:08:22;;;;;;;7.20;2.47;;;20.50;1.00;;;;;;5082118;28;20372;-56
2022/10/23 08:10:48;;;;;;;7.30;2.90;;;20.70;1.00;;;;;;5085040;28;20393;-56
2022/10/23 08:13:15;;;;;;;8.20;2.92;;;20.90;1.00;;;;;;5079639;28;20414;-56
2022/10/23 08:15:42;;;;;;;7.30;2.77;;;21.60;1.00;;;;;;5086114;28;20464;-56
2022/10/23 08:18:08;;;;;;;8.68;3.28;;;22.00;1.00;;;;;;5086222;28;20387;-57
2022/10/23 08:20:38;;;;;;;7.15;2.33;;;22.20;1.00;;;;;;5077528;28;20500;-56
2022/10/23 08:23:04;;;;;;;6.97;2.60;;;;;;;;;;5080325;28;21092;-57
2022/10/23 08:25:30;;;;;;;6.53;2.30;;;22.70;1.00;;;;;;5078720;28;20467;-57
2022/10/23 08:27:55;;;;;;;9.25;3.20;;;23.20;1.00;;;;;;5083676;28;20478;-56
2022/10/23 08:30:21;;;;;;;10.37;4.90;;;23.40;1.00;;;;;;5089324;28;20381;-53
2022/10/23 08:32:47;;;;;;;9.50;4.20;;;24.00;1.00;;;;;;5087215;28;20451;-56
2022/10/23 08:35:12;;;;;;;7.22;2.97;;;24.50;1.00;;;;;;5086045;28;20484;-54
2022/10/23 08:37:38;;;;;;;7.60;2.95;;;24.90;99.90;;;;;;5083942;28;20400;-54
2022/10/23 08:40:04;;;;;;;6.80;2.60;;;24.70;99.90;;;;;;5094413;28;20431;-54
2022/10/23 08:42:29;;;;;;;7.30;2.40;;;24.30;99.90;;;;;;5072359;28;20376;-54
2022/10/23 08:45:05;;;;;;;7.00;2.47;;;23.80;99.90;;;;;;5068438;28;20444;-56
2022/10/23 08:47:39;;;;;;;7.82;2.70;;;23.10;99.90;;;;;;5070031;28;20392;-56
2022/10/23 08:50:13;;;;;;;5.80;2.20;;;23.30;99.90;;;;;;5069567;28;20418;-56
2022/10/23 08:52:46;;;;;;;7.20;2.60;;;23.30;99.90;;;;;;5079621;28;20450;-58
2022/10/23 08:55:28;;;;;;;7.20;2.20;;;23.70;99.90;;;;;;5088340;28;20382;-56
2022/10/23 08:58:02;;;;;;;6.80;2.40;;;23.50;99.90;;;;;;5089822;28;20893;-56
2022/10/23 09:00:28;;;;;;;6.30;2.20;;;23.30;99.90;;;;;;5090406;28;20406;-57
2022/10/23 09:02:55;;;;;;;6.80;2.30;;;23.60;99.90;;;;;;5093553;28;20474;-57
2022/10/23 09:05:27;;;;;;;7.00;1.80;;;24.00;99.90;;;;;;5088924;28;20390;-54
2022/10/23 09:08:20;;;;;;;6.47;2.00;;;24.70;99.90;;;;;;5089567;28;20386;-54
2022/10/23 09:10:49;;;;;;;6.50;2.00;;;26.00;99.90;;;;;;5080390;28;20439;-56
2022/10/23 09:13:29;;;;;;;7.93;2.28;;;25.90;99.90;;;;;;5069366;28;20407;-57
2022/10/23 09:16:18;;;;;;;7.30;2.50;;;25.80;99.90;;;;;;5082417;28;20880;-57
2022/10/23 09:18:47;;;;;;;7.80;3.55;;;26.60;99.90;;;;;;5088025;28;20447;-57
2022/10/23 09:21:12;;;;;;;7.33;4.53;;;27.50;99.90;;;;;;5085694;28;20835;-57
2022/10/23 09:23:38;;;;;;;7.40;5.00;;;27.00;99.90;;;;;;5095477;28;20398;-57
2022/10/23 09:26:16;;;;;;;8.50;4.90;;;27.10;99.90;;;;;;5086210;28;20398;-57
2022/10/23 09:29:13;;;;;;;7.00;4.80;;;27.10;99.90;;;;;;5077639;28;20708;-57
2022/10/23 09:31:56;;;;;;;7.80;4.57;;;27.40;99.90;;;;;;5072414;28;20419;-57
2022/10/23 09:34:24;;;;;;;7.10;5.40;;;27.60;99.90;;;;;;5083949;28;20394;-57
2022/10/23 09:36:59;;;;;;;6.50;2.00;;;27.70;99.90;;;;;;5088303;28;20379;-57
2022/10/23 09:39:33;;;;;;;7.50;1.90;;;27.60;99.90;;;;;;5079871;28;20942;-57
2022/10/23 09:42:01;;;;;;;6.75;1.70;;;27.40;99.90;;;;;;5080192;28;20388;-58
2022/10/23 09:44:32;;;;;;;6.95;2.10;;;27.40;99.90;;;;;;5088506;28;20473;-58
2022/10/23 09:47:12;;;;;;;8.75;4.43;;;28.20;99.90;;;;;;5090122;28;20411;-57
2022/10/23 09:49:45;;;;;;;7.90;4.00;;;28.40;99.90;;;;;;5091096;28;20378;-57
2022/10/23 09:52:10;;;;;;;8.40;5.90;;;28.10;99.90;;;;;;5076314;28;20431;-57
2022/10/23 09:54:43;;;;;;;8.27;4.83;;;27.40;99.90;;;;;;5085291;28;20381;-57
2022/10/23 09:57:39;;;;;;;8.10;4.32;;;26.70;99.90;;;;;;5086025;28;20380;-55
2022/10/23 10:00:19;;;;;;;8.18;3.70;;;26.00;99.90;;;;;;5091010;28;20388;-54
2022/10/23 10:03:05;;;;;;;7.68;3.67;;;26.20;99.90;;;;;;5085212;28;20412;-56
2022/10/23 10:05:37;;;;;;;7.20;3.40;;;26.50;99.90;;;;;;5071314;28;20395;-55
2022/10/23 10:08:16;;;;;;;7.50;3.80;;;26.70;99.90;;;;;;5075022;28;20380;-57
2022/10/23 10:10:48;;;;;;;7.70;3.22;;;27.00;99.90;;;;;;5073298;28;20422;-58
2022/10/23 10:13:46;;;;;;;7.22;2.90;;;26.80;99.90;;;;;;5080708;28;20561;-58
2022/10/23 10:16:41;;;;;;;6.22;2.90;;;26.70;99.90;;;;;;5054956;28;20448;-58
2022/10/23 10:19:39;;;;;;;7.20;3.20;;;26.70;99.90;;;;;;5079727;28;21137;-59
2022/10/23 10:22:21;;;;;;;6.18;2.88;;;26.90;99.90;;;;;;5076196;28;20402;-59
2022/10/23 10:25:29;;;;;;;7.20;2.90;;;26.80;99.90;;;;;;5056784;28;20886;-61
2022/10/23 10:28:27;;;;;;;5.80;2.70;;;26.80;99.90;;;;;;5071255;28;20386;-59
2022/10/23 10:31:32;;;;;;;8.57;2.80;;;26.50;99.90;;;;;;5084939;28;20420;-58
2022/10/23 10:34:11;;;;;;;6.57;2.30;;;26.00;99.90;;;;;;5058144;28;20413;-58
2022/10/23 10:36:48;;;;;;;6.00;2.33;;;26.00;99.90;;;;;;5074957;28;20895;-58
2022/10/23 10:39:38;;;;;;;6.50;2.70;;;26.10;99.90;;;;;;5093095;28;20848;-59
2022/10/23 10:42:04;;;;;;;6.70;2.30;;;26.20;99.90;;;;;;5063372;28;20397;-59
2022/10/23 10:44:38;;;;;;;6.40;2.20;;;26.60;99.90;;;;;;5088812;28;20386;-59
2022/10/23 10:47:13;;;;;;;6.32;2.50;;;27.10;99.90;;;;;;5103846;28;20405;-59
2022/10/23 10:49:45;;;;;;;10.25;2.70;;;26.90;99.90;;;;;;5087661;28;20398;-60
2022/10/23 10:52:41;;;;;;;6.73;2.20;;;26.40;99.90;;;;;;5083804;28;20795;-58
2022/10/23 10:55:30;;;;;;;7.80;2.50;;;25.70;99.90;;;;;;5079057;28;20937;-59
2022/10/23 10:58:01;;;;;;;6.25;2.25;;;25.00;99.90;;;;;;5084938;28;20393;-59
2022/10/23 11:00:29;;;;;;;5.40;1.70;;;24.40;99.90;;;;;;5087898;28;20390;-58
2022/10/23 11:03:35;;;;;;;6.67;2.20;;;24.20;99.90;;;;;;5087529;28;20428;-58
2022/10/23 11:06:03;;;;;;;5.60;1.75;;;23.80;99.90;;;;;;5086349;28;20429;-58
2022/10/23 11:08:37;;;;;;;6.38;2.03;;;23.80;99.90;;;;;;5072660;28;20379;-59
2022/10/23 11:11:17;;;;;;;6.60;2.00;;;23.80;99.90;;;;;;5084630;28;20477;-58
2022/10/23 11:13:44;;;;;;;5.40;1.60;;;23.80;99.90;;;;;;5092177;28;20391;-59
2022/10/23 11:16:27;;;;;;;5.47;1.60;;;24.00;99.90;;;;;;5090114;28;20439;-61
2022/10/23 11:18:59;;;;;;;6.17;1.73;;;24.30;99.90;;;;;;5091542;28;20397;-58
2022/10/23 11:21:25;;;;;;;5.43;1.65;;;24.30;99.90;;;;;;5092298;28;20420;-59
2022/10/23 11:23:57;;;;;;;5.70;1.42;;;24.10;99.90;;;;;;5091627;28;20855;-59
2022/10/23 11:26:35;;;;;;;6.05;1.60;;;23.90;99.90;;;;;;5092079;28;20404;-58
2022/10/23 11:29:21;;;;;;;6.38;2.00;;;23.70;99.90;;;;;;5091311;28;20543;-62
2022/10/23 11:32:00;;;;;;;7.78;2.30;;;23.50;99.90;;;;;;5088105;28;20442;-62
2022/10/23 11:34:47;;;;;;;6.72;2.33;;;23.50;99.90;;;;;;5092203;28;20429;-59
2022/10/23 11:37:21;;;;;;;6.75;1.90;;;22.30;99.90;;;;;;5091865;28;20401;-59
2022/10/23 11:40:21;;;;;;;8.10;2.00;;;23.30;99.90;;;;;;5085440;28;20438;-62
2022/10/23 11:42:49;;;;;;;6.60;1.80;;;23.30;99.90;;;;;;5081397;27;20402;-64
2022/10/23 11:45:32;;;;;;;6.50;2.10;;;23.30;99.90;;;;;;5079571;28;20900;-59
2022/10/23 11:48:13;;;;;;;6.90;2.00;;;23.30;99.90;;;;;;5079121;28;20434;-59
2022/10/23 11:50:45;;;;;;;5.97;2.00;;;23.00;99.90;;;;;;5081904;28;20492;-58
2022/10/23 11:53:29;;;;;;;8.30;2.10;;;22.90;99.90;;;;;;5080984;28;20449;-59
2022/10/23 11:56:11;;;;;;;8.50;2.20;;;23.00;99.90;;;;;;5076016;28;20395;-59
2022/10/23 11:58:45;;;;;;;5.90;1.90;;;23.00;99.90;;;;;;5089672;28;20451;-59
2022/10/23 12:01:34;;;;;;;6.67;2.00;;;23.00;99.90;;;;;;5091577;28;20401;-54
2022/10/23 12:04:19;;;;;;;8.80;2.28;;;23.00;99.90;;;;;;5090987;28;20374;-57
2022/10/23 12:06:56;;;;;;;6.67;2.00;;;23.10;99.90;;;;;;5091801;28;20381;-59
2022/10/23 12:09:24;;;;;;;6.60;2.28;;;23.30;99.90;;;;;;5089767;28;20398;-57
2022/10/23 12:12:08;;;;;;;6.90;2.40;;;23.40;99.90;;;;;;5093105;28;20885;-57
2022/10/23 12:14:39;;;;;;;6.15;1.92;;;23.60;99.90;;;;;;5079526;28;20412;-57
2022/10/23 12:17:38;;;;;;;6.40;2.00;;;23.60;99.90;;;;;;5088873;28;20465;-57
2022/10/23 12:20:07;;;;;;;8.30;2.00;;;23.60;99.90;;;;;;5033998;28;20402;-57
2022/10/23 12:22:59;;;;;;;6.60;2.33;;;23.50;99.90;;;;;;5077094;28;20399;-57
2022/10/23 12:25:54;;;;;;;7.50;2.50;;;23.60;99.90;;;;;;5071644;28;20596;-57
2022/10/23 12:28:43;;;;;;;6.87;2.20;;;23.70;99.90;;;;;;5074631;28;20384;-57
2022/10/23 12:31:35;;;;;;;8.90;2.50;;;23.40;99.90;;;;;;5077902;28;20923;-57
2022/10/23 12:34:00;;;;;;;6.95;2.50;;;23.30;99.90;;;;;;5060818;28;20893;-57
2022/10/23 12:37:09;;;;;;;7.57;2.60;;;23.40;99.90;;;;;;5087244;28;20448;-56
2022/10/23 12:39:37;;;;;;;6.55;2.10;;;23.30;99.90;;;;;;5070722;28;20398;-57
2022/10/23 12:42:05;;;;;;;10.00;2.50;;;23.30;99.90;;;;;;5069626;28;20392;-57
2022/10/23 12:44:31;;;;;;;6.43;2.50;;;23.60;99.90;;;;;;5070768;28;20925;-57
2022/10/23 12:47:01;;;;;;;7.57;2.20;;;23.90;99.90;;;;;;5070112;28;20372;-57
2022/10/23 12:49:30;;;;;;;8.25;2.50;;;24.80;99.90;;;;;;5070400;28;20787;-57
2022/10/23 12:51:59;;;;;;;7.70;2.72;;;24.00;99.90;;;;;;5069816;28;20423;-57
2022/10/23 12:54:25;;;;;;;6.60;2.22;;;24.00;99.90;;;;;;5062401;28;20603;-58
2022/10/23 12:56:52;;;;;;;8.00;2.60;;;24.20;99.90;;;;;;5100866;28;20910;-58
2022/10/23 12:59:37;;;;;;;9.27;3.10;;;24.40;99.90;;;;;;5090660;28;20412;-57
2022/10/23 13:02:21;;;;;;;7.07;2.80;;;24.50;99.90;;;;;;5090388;28;20390;-57
2022/10/23 13:04:49;;;;;;;6.35;1.50;;;24.70;99.90;;;;;;5090695;28;20374;-57
2022/10/23 13:07:18;;;;;;;6.40;2.00;;;24.70;99.90;;;;;;5090398;28;20465;-57
2022/10/23 13:09:46;;;;;;;7.40;1.97;;;24.50;99.90;;;;;;5090500;28;20370;-57